sensor_id;sensor_type;location;lat;lon;timestamp;temperature;humidity
22852;DHT22;11592;45.460;9.240;2023-04-25T00:01:40;15.50;99.90
22852;DHT22;11592;45.460;9.240;2023-04-25T00:04:07;15.50;99.90
22852;DHT22;11592;45.460;9.240;2023-04-25T00:06:35;15.50;99.90
22852;DHT22;11592;45.460;9.240;2023-04-25T00:09:04;15.50;99.90
22852;DHT22;11592;45.460;9.240;2023-04-25T00:11:33;15.60;99.90
22852;DHT22;11592;45.460;9.240;2023-04-25T00:14:00;15.40;99.90
22852;DHT22;11592;45.460;9.240;2023-04-25T00:16:29;15.40;99.90
22852;DHT22;11592;45.460;9.240;2023-04-25T00:19:03;15.40;99.90
22852;DHT22;11592;45.460;9.240;2023-04-25T00:21:30;15.50;99.90
22852;DHT22;11592;45.460;9.240;2023-04-25T00:23:58;15.40;99.90
22852;DHT22;11592;45.460;9.240;2023-04-25T00:26:26;15.40;99.90
22852;DHT22;11592;45.460;9.240;2023-04-25T00:28:53;15.40;99.90
22852;DHT22;11592;45.460;9.240;2023-04-25T00:31:20;15.40;99.90
22852;DHT22;11592;45.460;9.240;2023-04-25T00:33:47;15.50;99.90
22852;DHT22;11592;45.460;9.240;2023-04-25T00:36:15;15.40;99.90
22852;DHT22;11592;45.460;9.240;2023-04-25T00:38:41;15.40;99.90
22852;DHT22;11592;45.460;9.240;2023-04-25T00:41:08;15.50;99.90
22852;DHT22;11592;45.460;9.240;2023-04-25T00:43:36;15.40;99.90
22852;DHT22;11592;45.460;9.240;2023-04-25T00:46:03;15.50;99.90
22852;DHT22;11592;45.460;9.240;2023-04-25T00:48:30;15.50;99.90
22852;DHT22;11592;45.460;9.240;2023-04-25T00:50:58;15.40;99.90
22852;DHT22;11592;45.460;9.240;2023-04-25T00:53:27;15.50;99.90
22852;DHT22;11592;45.460;9.240;2023-04-25T00:55:54;15.50;99.90
22852;DHT22;11592;45.460;9.240;2023-04-25T00:58:22;15.50;99.90
22852;DHT22;11592;45.460;9.240;2023-04-25T01:00:51;15.40;99.90
22852;DHT22;11592;45.460;9.240;2023-04-25T01:03:19;15.50;99.90
22852;DHT22;11592;45.460;9.240;2023-04-25T01:05:47;15.50;99.90
22852;DHT22;11592;45.460;9.240;2023-04-25T01:08:14;15.50;99.90
22852;DHT22;11592;45.460;9.240;2023-04-25T01:10:41;15.50;99.90
22852;DHT22;11592;45.460;9.240;2023-04-25T01:13:08;15.50;99.90
22852;DHT22;11592;45.460;9.240;2023-04-25T01:15:35;15.40;99.90
22852;DHT22;11592;45.460;9.240;2023-04-25T01:18:04;15.40;99.90
22852;DHT22;11592;45.460;9.240;2023-04-25T01:20:32;15.30;99.90
22852;DHT22;11592;45.460;9.240;2023-04-25T01:23:00;15.20;99.90
22852;DHT22;11592;45.460;9.240;2023-04-25T01:25:29;15.20;99.90
22852;DHT22;11592;45.460;9.240;2023-04-25T01:27:57;15.30;99.90
22852;DHT22;11592;45.460;9.240;2023-04-25T01:30:26;15.30;99.90
22852;DHT22;11592;45.460;9.240;2023-04-25T01:32:57;15.30;99.90
22852;DHT22;11592;45.460;9.240;2023-04-25T01:35:24;15.20;99.90
22852;DHT22;11592;45.460;9.240;2023-04-25T01:37:52;15.20;99.90
22852;DHT22;11592;45.460;9.240;2023-04-25T01:40:20;15.20;99.90
22852;DHT22;11592;45.460;9.240;2023-04-25T01:42:48;15.20;99.90
22852;DHT22;11592;45.460;9.240;2023-04-25T01:45:15;15.20;99.90
22852;DHT22;11592;45.460;9.240;2023-04-25T01:47:42;15.10;99.90
22852;DHT22;11592;45.460;9.240;2023-04-25T01:50:10;15.00;99.90
22852;DHT22;11592;45.460;9.240;2023-04-25T01:52:38;15.10;99.90
22852;DHT22;11592;45.460;9.240;2023-04-25T01:55:05;15.10;99.90
22852;DHT22;11592;45.460;9.240;2023-04-25T01:57:32;15.10;99.90
22852;DHT22;11592;45.460;9.240;2023-04-25T02:00:01;15.10;99.90
22852;DHT22;11592;45.460;9.240;2023-04-25T02:02:29;15.00;99.90
22852;DHT22;11592;45.460;9.240;2023-04-25T02:04:56;15.00;99.90
22852;DHT22;11592;45.460;9.240;2023-04-25T02:07:23;14.90;99.90
22852;DHT22;11592;45.460;9.240;2023-04-25T02:09:49;15.00;99.90
22852;DHT22;11592;45.460;9.240;2023-04-25T02:12:16;14.90;99.90
22852;DHT22;11592;45.460;9.240;2023-04-25T02:14:43;14.80;99.90
22852;DHT22;11592;45.460;9.240;2023-04-25T02:17:10;14.90;99.90
22852;DHT22;11592;45.460;9.240;2023-04-25T02:19:39;14.80;99.90
22852;DHT22;11592;45.460;9.240;2023-04-25T02:22:06;14.80;99.90
22852;DHT22;11592;45.460;9.240;2023-04-25T02:24:32;14.80;99.90
22852;DHT22;11592;45.460;9.240;2023-04-25T02:27:01;14.70;99.90
22852;DHT22;11592;45.460;9.240;2023-04-25T02:29:28;14.70;99.90
22852;DHT22;11592;45.460;9.240;2023-04-25T02:31:55;14.70;99.90
22852;DHT22;11592;45.460;9.240;2023-04-25T02:34:22;14.70;99.90
22852;DHT22;11592;45.460;9.240;2023-04-25T02:36:49;14.60;99.90
22852;DHT22;11592;45.460;9.240;2023-04-25T02:39:17;14.60;99.90
22852;DHT22;11592;45.460;9.240;2023-04-25T02:41:44;14.60;99.90
22852;DHT22;11592;45.460;9.240;2023-04-25T02:44:11;14.60;99.90
22852;DHT22;11592;45.460;9.240;2023-04-25T02:46:37;14.60;99.90
22852;DHT22;11592;45.460;9.240;2023-04-25T02:49:06;14.60;99.90
22852;DHT22;11592;45.460;9.240;2023-04-25T02:51:33;14.60;99.90
22852;DHT22;11592;45.460;9.240;2023-04-25T02:54:00;14.50;99.90
22852;DHT22;11592;45.460;9.240;2023-04-25T02:56:26;14.40;99.90
22852;DHT22;11592;45.460;9.240;2023-04-25T02:58:53;14.50;99.90
22852;DHT22;11592;45.460;9.240;2023-04-25T03:01:20;14.40;99.90
22852;DHT22;11592;45.460;9.240;2023-04-25T03:03:47;14.50;99.90
22852;DHT22;11592;45.460;9.240;2023-04-25T03:06:14;14.50;99.90
22852;DHT22;11592;45.460;9.240;2023-04-25T03:08:42;14.30;99.90
22852;DHT22;11592;45.460;9.240;2023-04-25T03:11:09;14.40;99.90
22852;DHT22;11592;45.460;9.240;2023-04-25T03:13:37;14.20;99.90
22852;DHT22;11592;45.460;9.240;2023-04-25T03:16:04;14.10;99.90
22852;DHT22;11592;45.460;9.240;2023-04-25T03:18:31;14.20;99.90
22852;DHT22;11592;45.460;9.240;2023-04-25T03:20:58;14.20;99.90
22852;DHT22;11592;45.460;9.240;2023-04-25T03:23:25;14.20;99.90
22852;DHT22;11592;45.460;9.240;2023-04-25T03:25:52;14.10;99.90
22852;DHT22;11592;45.460;9.240;2023-04-25T03:28:19;14.10;99.90
22852;DHT22;11592;45.460;9.240;2023-04-25T03:30:46;14.10;99.90
22852;DHT22;11592;45.460;9.240;2023-04-25T03:33:13;14.10;99.90
22852;DHT22;11592;45.460;9.240;2023-04-25T03:35:40;14.20;99.90
22852;DHT22;11592;45.460;9.240;2023-04-25T03:38:07;14.10;99.90
22852;DHT22;11592;45.460;9.240;2023-04-25T03:40:33;14.10;99.90
22852;DHT22;11592;45.460;9.240;2023-04-25T03:43:00;14.20;99.90
22852;DHT22;11592;45.460;9.240;2023-04-25T03:45:27;14.10;99.90
22852;DHT22;11592;45.460;9.240;2023-04-25T03:47:54;14.10;99.90
22852;DHT22;11592;45.460;9.240;2023-04-25T03:50:20;14.00;99.90
22852;DHT22;11592;45.460;9.240;2023-04-25T03:52:47;14.00;99.90
22852;DHT22;11592;45.460;9.240;2023-04-25T03:55:14;14.00;99.90
22852;DHT22;11592;45.460;9.240;2023-04-25T03:57:41;13.90;99.90
22852;DHT22;11592;45.460;9.240;2023-04-25T04:00:08;13.90;99.90
22852;DHT22;11592;45.460;9.240;2023-04-25T04:02:35;14.00;99.90
22852;DHT22;11592;45.460;9.240;2023-04-25T04:05:04;13.90;99.90
22852;DHT22;11592;45.460;9.240;2023-04-25T04:07:32;14.00;99.90
22852;DHT22;11592;45.460;9.240;2023-04-25T04:09:59;13.90;99.90
22852;DHT22;11592;45.460;9.240;2023-04-25T04:12:26;13.80;99.90
22852;DHT22;11592;45.460;9.240;2023-04-25T04:14:53;13.80;99.90
22852;DHT22;11592;45.460;9.240;2023-04-25T04:17:20;13.70;99.90
22852;DHT22;11592;45.460;9.240;2023-04-25T04:19:47;13.70;99.90
22852;DHT22;11592;45.460;9.240;2023-04-25T04:22:13;13.80;99.90
22852;DHT22;11592;45.460;9.240;2023-04-25T04:24:40;13.80;99.90
22852;DHT22;11592;45.460;9.240;2023-04-25T04:27:10;13.70;99.90
22852;DHT22;11592;45.460;9.240;2023-04-25T04:29:39;13.80;99.90
22852;DHT22;11592;45.460;9.240;2023-04-25T04:32:05;13.80;99.90
22852;DHT22;11592;45.460;9.240;2023-04-25T04:34:32;13.70;99.90
22852;DHT22;11592;45.460;9.240;2023-04-25T04:37:00;13.70;99.90
22852;DHT22;11592;45.460;9.240;2023-04-25T04:39:27;13.70;99.90
22852;DHT22;11592;45.460;9.240;2023-04-25T04:41:54;13.70;99.90
22852;DHT22;11592;45.460;9.240;2023-04-25T04:44:21;13.70;99.90
22852;DHT22;11592;45.460;9.240;2023-04-25T04:46:48;13.60;99.90
22852;DHT22;11592;45.460;9.240;2023-04-25T04:49:15;13.60;99.90
22852;DHT22;11592;45.460;9.240;2023-04-25T04:51:42;13.50;99.90
22852;DHT22;11592;45.460;9.240;2023-04-25T04:54:11;13.60;99.90
22852;DHT22;11592;45.460;9.240;2023-04-25T04:56:37;13.50;99.90
22852;DHT22;11592;45.460;9.240;2023-04-25T04:59:04;13.60;99.90
22852;DHT22;11592;45.460;9.240;2023-04-25T05:01:31;13.70;99.90
22852;DHT22;11592;45.460;9.240;2023-04-25T05:03:58;13.80;99.90
22852;DHT22;11592;45.460;9.240;2023-04-25T05:06:28;13.80;99.90
22852;DHT22;11592;45.460;9.240;2023-04-25T05:08:56;13.80;99.90
22852;DHT22;11592;45.460;9.240;2023-04-25T05:11:23;13.80;99.90
22852;DHT22;11592;45.460;9.240;2023-04-25T05:13:52;13.90;99.90
22852;DHT22;11592;45.460;9.240;2023-04-25T05:16:20;14.00;99.90
22852;DHT22;11592;45.460;9.240;2023-04-25T05:18:47;13.90;99.90
22852;DHT22;11592;45.460;9.240;2023-04-25T05:21:14;13.90;99.90
22852;DHT22;11592;45.460;9.240;2023-04-25T05:23:41;13.80;99.90
22852;DHT22;11592;45.460;9.240;2023-04-25T05:26:07;13.90;99.90
22852;DHT22;11592;45.460;9.240;2023-04-25T05:28:40;14.00;99.90
22852;DHT22;11592;45.460;9.240;2023-04-25T05:31:10;14.10;99.90
22852;DHT22;11592;45.460;9.240;2023-04-25T05:33:36;14.10;99.90
22852;DHT22;11592;45.460;9.240;2023-04-25T05:36:04;14.20;99.90
22852;DHT22;11592;45.460;9.240;2023-04-25T05:38:30;14.20;99.90
22852;DHT22;11592;45.460;9.240;2023-04-25T05:41:00;14.30;99.90
22852;DHT22;11592;45.460;9.240;2023-04-25T05:43:27;14.40;99.90
22852;DHT22;11592;45.460;9.240;2023-04-25T05:45:54;14.50;99.90
22852;DHT22;11592;45.460;9.240;2023-04-25T05:48:21;14.50;99.90
22852;DHT22;11592;45.460;9.240;2023-04-25T05:50:48;14.70;99.90
22852;DHT22;11592;45.460;9.240;2023-04-25T05:53:15;14.70;99.90
22852;DHT22;11592;45.460;9.240;2023-04-25T05:55:42;14.80;99.90
22852;DHT22;11592;45.460;9.240;2023-04-25T05:58:08;14.80;99.90
22852;DHT22;11592;45.460;9.240;2023-04-25T06:00:35;14.80;99.90
22852;DHT22;11592;45.460;9.240;2023-04-25T06:03:02;14.90;99.90
22852;DHT22;11592;45.460;9.240;2023-04-25T06:05:30;14.90;99.90
22852;DHT22;11592;45.460;9.240;2023-04-25T06:07:57;15.00;99.90
22852;DHT22;11592;45.460;9.240;2023-04-25T06:10:23;15.10;99.90
22852;DHT22;11592;45.460;9.240;2023-04-25T06:12:50;15.20;99.90
22852;DHT22;11592;45.460;9.240;2023-04-25T06:15:17;15.10;99.90
22852;DHT22;11592;45.460;9.240;2023-04-25T06:17:54;15.20;99.90
22852;DHT22;11592;45.460;9.240;2023-04-25T06:20:22;15.20;99.90
22852;DHT22;11592;45.460;9.240;2023-04-25T06:22:51;15.30;99.90
22852;DHT22;11592;45.460;9.240;2023-04-25T06:25:21;15.30;99.90
22852;DHT22;11592;45.460;9.240;2023-04-25T06:27:47;15.40;99.90
22852;DHT22;11592;45.460;9.240;2023-04-25T06:30:14;15.50;99.90
22852;DHT22;11592;45.460;9.240;2023-04-25T06:32:41;15.30;99.90
22852;DHT22;11592;45.460;9.240;2023-04-25T06:35:08;15.30;99.90
22852;DHT22;11592;45.460;9.240;2023-04-25T06:37:35;15.40;99.90
22852;DHT22;11592;45.460;9.240;2023-04-25T06:40:02;15.60;99.90
22852;DHT22;11592;45.460;9.240;2023-04-25T06:42:29;15.70;99.90
22852;DHT22;11592;45.460;9.240;2023-04-25T06:44:55;15.70;99.90
22852;DHT22;11592;45.460;9.240;2023-04-25T06:47:22;15.70;99.90
22852;DHT22;11592;45.460;9.240;2023-04-25T06:49:49;15.90;99.90
22852;DHT22;11592;45.460;9.240;2023-04-25T06:52:16;16.00;99.90
22852;DHT22;11592;45.460;9.240;2023-04-25T06:54:44;16.20;99.90
22852;DHT22;11592;45.460;9.240;2023-04-25T06:57:11;16.10;99.90
22852;DHT22;11592;45.460;9.240;2023-04-25T06:59:38;16.00;99.90
22852;DHT22;11592;45.460;9.240;2023-04-25T07:02:05;16.00;99.90
22852;DHT22;11592;45.460;9.240;2023-04-25T07:04:32;16.00;99.90
22852;DHT22;11592;45.460;9.240;2023-04-25T07:06:59;16.10;99.90
22852;DHT22;11592;45.460;9.240;2023-04-25T07:09:29;16.30;99.90
22852;DHT22;11592;45.460;9.240;2023-04-25T07:11:56;16.50;99.90
22852;DHT22;11592;45.460;9.240;2023-04-25T07:14:23;16.70;99.90
22852;DHT22;11592;45.460;9.240;2023-04-25T07:16:50;16.80;99.90
22852;DHT22;11592;45.460;9.240;2023-04-25T07:19:17;17.00;99.90
22852;DHT22;11592;45.460;9.240;2023-04-25T07:21:43;17.00;99.90
22852;DHT22;11592;45.460;9.240;2023-04-25T07:24:10;17.00;99.90
22852;DHT22;11592;45.460;9.240;2023-04-25T07:26:37;16.90;99.90
22852;DHT22;11592;45.460;9.240;2023-04-25T07:29:04;16.90;99.90
22852;DHT22;11592;45.460;9.240;2023-04-25T07:31:31;17.00;99.90
22852;DHT22;11592;45.460;9.240;2023-04-25T07:33:58;16.70;99.90
22852;DHT22;11592;45.460;9.240;2023-04-25T07:36:27;16.80;99.90
22852;DHT22;11592;45.460;9.240;2023-04-25T07:38:54;16.70;99.90
22852;DHT22;11592;45.460;9.240;2023-04-25T07:41:20;16.50;99.90
22852;DHT22;11592;45.460;9.240;2023-04-25T07:43:48;16.40;99.90
22852;DHT22;11592;45.460;9.240;2023-04-25T07:46:15;16.60;99.90
22852;DHT22;11592;45.460;9.240;2023-04-25T07:48:42;16.50;99.90
22852;DHT22;11592;45.460;9.240;2023-04-25T07:51:09;16.20;99.90
22852;DHT22;11592;45.460;9.240;2023-04-25T07:53:35;16.40;99.90
22852;DHT22;11592;45.460;9.240;2023-04-25T07:56:04;16.40;99.90
22852;DHT22;11592;45.460;9.240;2023-04-25T07:58:31;16.60;99.90
22852;DHT22;11592;45.460;9.240;2023-04-25T08:00:58;16.80;99.90
22852;DHT22;11592;45.460;9.240;2023-04-25T08:03:25;16.60;99.90
22852;DHT22;11592;45.460;9.240;2023-04-25T08:05:52;16.50;99.90
22852;DHT22;11592;45.460;9.240;2023-04-25T08:08:19;16.30;99.90
22852;DHT22;11592;45.460;9.240;2023-04-25T08:10:46;16.00;99.90
22852;DHT22;11592;45.460;9.240;2023-04-25T08:13:14;16.10;99.90
22852;DHT22;11592;45.460;9.240;2023-04-25T08:15:41;16.20;99.90
22852;DHT22;11592;45.460;9.240;2023-04-25T08:18:08;16.10;99.90
22852;DHT22;11592;45.460;9.240;2023-04-25T08:20:35;16.10;99.90
22852;DHT22;11592;45.460;9.240;2023-04-25T08:23:02;16.10;99.90
22852;DHT22;11592;45.460;9.240;2023-04-25T08:25:29;16.30;99.90
22852;DHT22;11592;45.460;9.240;2023-04-25T08:27:55;16.20;99.90
22852;DHT22;11592;45.460;9.240;2023-04-25T08:30:23;16.30;99.90
22852;DHT22;11592;45.460;9.240;2023-04-25T08:32:50;16.30;99.90
22852;DHT22;11592;45.460;9.240;2023-04-25T08:35:17;16.50;99.90
22852;DHT22;11592;45.460;9.240;2023-04-25T08:37:44;16.40;99.90
22852;DHT22;11592;45.460;9.240;2023-04-25T08:40:12;16.20;99.90
22852;DHT22;11592;45.460;9.240;2023-04-25T08:42:41;16.30;99.90
22852;DHT22;11592;45.460;9.240;2023-04-25T08:45:09;16.60;99.90
22852;DHT22;11592;45.460;9.240;2023-04-25T08:47:38;16.90;99.90
22852;DHT22;11592;45.460;9.240;2023-04-25T08:50:06;16.90;99.90
22852;DHT22;11592;45.460;9.240;2023-04-25T08:52:37;17.00;99.90
22852;DHT22;11592;45.460;9.240;2023-04-25T08:55:07;17.20;99.90
22852;DHT22;11592;45.460;9.240;2023-04-25T08:57:35;17.50;99.90
22852;DHT22;11592;45.460;9.240;2023-04-25T09:00:03;17.80;99.90
22852;DHT22;11592;45.460;9.240;2023-04-25T09:02:31;18.10;99.90
22852;DHT22;11592;45.460;9.240;2023-04-25T09:04:58;18.30;99.90
22852;DHT22;11592;45.460;9.240;2023-04-25T09:07:25;17.90;99.90
22852;DHT22;11592;45.460;9.240;2023-04-25T09:09:52;17.90;99.90
22852;DHT22;11592;45.460;9.240;2023-04-25T09:12:19;17.70;99.90
22852;DHT22;11592;45.460;9.240;2023-04-25T09:17:31;18.40;99.90
22852;DHT22;11592;45.460;9.240;2023-04-25T09:20:09;18.60;99.90
22852;DHT22;11592;45.460;9.240;2023-04-25T09:22:37;18.70;99.90
22852;DHT22;11592;45.460;9.240;2023-04-25T09:25:09;18.40;99.90
22852;DHT22;11592;45.460;9.240;2023-04-25T09:27:36;18.30;99.90
22852;DHT22;11592;45.460;9.240;2023-04-25T09:30:16;18.30;99.90
22852;DHT22;11592;45.460;9.240;2023-04-25T09:32:43;18.50;99.90
22852;DHT22;11592;45.460;9.240;2023-04-25T09:35:11;18.50;99.90
22852;DHT22;11592;45.460;9.240;2023-04-25T09:37:50;18.60;99.90
22852;DHT22;11592;45.460;9.240;2023-04-25T09:40:18;18.80;99.90
22852;DHT22;11592;45.460;9.240;2023-04-25T09:42:45;19.00;99.90
22852;DHT22;11592;45.460;9.240;2023-04-25T09:45:15;19.00;99.90
22852;DHT22;11592;45.460;9.240;2023-04-25T09:47:41;18.90;99.90
22852;DHT22;11592;45.460;9.240;2023-04-25T09:50:17;18.90;99.90
22852;DHT22;11592;45.460;9.240;2023-04-25T09:52:45;18.80;99.90
22852;DHT22;11592;45.460;9.240;2023-04-25T09:55:12;18.60;99.90
22852;DHT22;11592;45.460;9.240;2023-04-25T09:57:39;18.10;99.90
22852;DHT22;11592;45.460;9.240;2023-04-25T10:00:07;18.00;99.90
22852;DHT22;11592;45.460;9.240;2023-04-25T10:02:38;17.80;99.90
22852;DHT22;11592;45.460;9.240;2023-04-25T10:05:09;17.90;99.90
22852;DHT22;11592;45.460;9.240;2023-04-25T10:07:38;17.90;99.90
22852;DHT22;11592;45.460;9.240;2023-04-25T10:10:05;17.60;99.90
22852;DHT22;11592;45.460;9.240;2023-04-25T10:12:33;17.80;99.90
22852;DHT22;11592;45.460;9.240;2023-04-25T10:15:01;17.90;99.90
22852;DHT22;11592;45.460;9.240;2023-04-25T10:17:29;18.50;99.90
22852;DHT22;11592;45.460;9.240;2023-04-25T10:19:56;18.90;99.90
22852;DHT22;11592;45.460;9.240;2023-04-25T10:22:31;19.10;99.90
22852;DHT22;11592;45.460;9.240;2023-04-25T10:25:00;19.00;99.90
22852;DHT22;11592;45.460;9.240;2023-04-25T10:27:27;19.20;99.90
22852;DHT22;11592;45.460;9.240;2023-04-25T10:30:07;19.50;99.90
22852;DHT22;11592;45.460;9.240;2023-04-25T10:32:37;20.00;99.90
22852;DHT22;11592;45.460;9.240;2023-04-25T10:35:46;20.20;99.90
22852;DHT22;11592;45.460;9.240;2023-04-25T10:38:10;20.10;99.90
22852;DHT22;11592;45.460;9.240;2023-04-25T10:40:37;20.30;99.90
22852;DHT22;11592;45.460;9.240;2023-04-25T10:43:35;20.70;99.90
22852;DHT22;11592;45.460;9.240;2023-04-25T10:46:26;21.10;99.90
22852;DHT22;11592;45.460;9.240;2023-04-25T10:49:00;21.20;99.90
22852;DHT22;11592;45.460;9.240;2023-04-25T10:51:32;21.30;99.90
22852;DHT22;11592;45.460;9.240;2023-04-25T10:54:22;21.50;99.90
22852;DHT22;11592;45.460;9.240;2023-04-25T10:56:50;21.00;99.90
22852;DHT22;11592;45.460;9.240;2023-04-25T10:59:18;20.50;99.90
22852;DHT22;11592;45.460;9.240;2023-04-25T11:01:46;20.70;99.90
22852;DHT22;11592;45.460;9.240;2023-04-25T11:04:32;21.00;99.90
22852;DHT22;11592;45.460;9.240;2023-04-25T11:09:35;21.60;99.90
22852;DHT22;11592;45.460;9.240;2023-04-25T11:12:02;21.80;99.90
22852;DHT22;11592;45.460;9.240;2023-04-25T11:14:29;22.30;99.90
22852;DHT22;11592;45.460;9.240;2023-04-25T11:16:56;22.70;99.90
22852;DHT22;11592;45.460;9.240;2023-04-25T11:19:27;22.80;99.90
22852;DHT22;11592;45.460;9.240;2023-04-25T11:21:58;22.90;98.50
22852;DHT22;11592;45.460;9.240;2023-04-25T11:24:30;22.40;98.10
22852;DHT22;11592;45.460;9.240;2023-04-25T11:27:01;22.30;99.50
22852;DHT22;11592;45.460;9.240;2023-04-25T11:29:30;22.00;98.50
22852;DHT22;11592;45.460;9.240;2023-04-25T11:31:57;21.60;99.90
22852;DHT22;11592;45.460;9.240;2023-04-25T11:34:29;21.60;99.90
22852;DHT22;11592;45.460;9.240;2023-04-25T11:37:00;22.10;99.90
22852;DHT22;11592;45.460;9.240;2023-04-25T11:39:29;22.60;99.90
22852;DHT22;11592;45.460;9.240;2023-04-25T11:41:56;22.90;99.90
22852;DHT22;11592;45.460;9.240;2023-04-25T11:44:23;23.20;98.80
22852;DHT22;11592;45.460;9.240;2023-04-25T11:46:50;23.30;98.60
22852;DHT22;11592;45.460;9.240;2023-04-25T11:49:17;23.30;98.70
22852;DHT22;11592;45.460;9.240;2023-04-25T11:51:47;23.10;98.20
22852;DHT22;11592;45.460;9.240;2023-04-25T11:54:14;22.90;98.90
22852;DHT22;11592;45.460;9.240;2023-04-25T11:56:43;23.00;99.40
22852;DHT22;11592;45.460;9.240;2023-04-25T11:59:10;23.20;99.30
22852;DHT22;11592;45.460;9.240;2023-04-25T12:01:40;23.30;99.80
22852;DHT22;11592;45.460;9.240;2023-04-25T12:04:24;23.40;97.90
22852;DHT22;11592;45.460;9.240;2023-04-25T12:06:53;23.60;97.80
22852;DHT22;11592;45.460;9.240;2023-04-25T12:09:28;23.40;96.20
22852;DHT22;11592;45.460;9.240;2023-04-25T12:11:57;23.20;96.00
22852;DHT22;11592;45.460;9.240;2023-04-25T12:14:47;23.30;97.20
22852;DHT22;11592;45.460;9.240;2023-04-25T12:17:17;23.30;96.50
22852;DHT22;11592;45.460;9.240;2023-04-25T12:19:46;23.50;96.20
22852;DHT22;11592;45.460;9.240;2023-04-25T12:22:23;23.50;96.20
22852;DHT22;11592;45.460;9.240;2023-04-25T12:24:51;23.30;96.30
22852;DHT22;11592;45.460;9.240;2023-04-25T12:27:19;22.80;95.60
22852;DHT22;11592;45.460;9.240;2023-04-25T12:29:56;22.10;96.80
22852;DHT22;11592;45.460;9.240;2023-04-25T12:32:23;21.70;97.50
22852;DHT22;11592;45.460;9.240;2023-04-25T12:34:50;21.40;97.20
22852;DHT22;11592;45.460;9.240;2023-04-25T12:37:17;21.00;97.40
22852;DHT22;11592;45.460;9.240;2023-04-25T12:39:44;21.00;97.10
22852;DHT22;11592;45.460;9.240;2023-04-25T12:42:11;20.80;96.70
22852;DHT22;11592;45.460;9.240;2023-04-25T12:44:39;20.70;97.20
22852;DHT22;11592;45.460;9.240;2023-04-25T12:47:07;20.80;97.30
22852;DHT22;11592;45.460;9.240;2023-04-25T12:49:33;20.70;96.30
22852;DHT22;11592;45.460;9.240;2023-04-25T12:52:00;20.50;96.60
22852;DHT22;11592;45.460;9.240;2023-04-25T12:54:27;20.40;98.70
22852;DHT22;11592;45.460;9.240;2023-04-25T12:56:54;20.10;98.30
22852;DHT22;11592;45.460;9.240;2023-04-25T12:59:21;19.90;98.70
22852;DHT22;11592;45.460;9.240;2023-04-25T13:01:48;19.90;99.00
22852;DHT22;11592;45.460;9.240;2023-04-25T13:04:15;19.70;99.90
22852;DHT22;11592;45.460;9.240;2023-04-25T13:06:42;19.60;99.90
22852;DHT22;11592;45.460;9.240;2023-04-25T13:09:09;19.50;99.90
22852;DHT22;11592;45.460;9.240;2023-04-25T13:11:37;19.10;99.90
22852;DHT22;11592;45.460;9.240;2023-04-25T13:14:05;18.50;99.90
22852;DHT22;11592;45.460;9.240;2023-04-25T13:16:32;18.10;99.90
22852;DHT22;11592;45.460;9.240;2023-04-25T13:18:58;17.70;99.90
22852;DHT22;11592;45.460;9.240;2023-04-25T13:21:25;17.60;99.90
22852;DHT22;11592;45.460;9.240;2023-04-25T13:23:52;17.60;99.90
22852;DHT22;11592;45.460;9.240;2023-04-25T13:26:19;17.50;99.90
22852;DHT22;11592;45.460;9.240;2023-04-25T13:28:46;17.40;99.90
22852;DHT22;11592;45.460;9.240;2023-04-25T13:31:13;17.40;99.90
22852;DHT22;11592;45.460;9.240;2023-04-25T13:33:40;17.50;99.90
22852;DHT22;11592;45.460;9.240;2023-04-25T13:36:07;17.60;99.90
22852;DHT22;11592;45.460;9.240;2023-04-25T13:38:33;17.70;99.90
22852;DHT22;11592;45.460;9.240;2023-04-25T13:41:00;17.80;99.90
22852;DHT22;11592;45.460;9.240;2023-04-25T13:43:27;17.90;99.90
22852;DHT22;11592;45.460;9.240;2023-04-25T13:45:54;17.90;99.90
22852;DHT22;11592;45.460;9.240;2023-04-25T13:48:21;17.90;99.90
22852;DHT22;11592;45.460;9.240;2023-04-25T13:50:49;17.90;99.90
22852;DHT22;11592;45.460;9.240;2023-04-25T13:53:16;19.20;99.90
22852;DHT22;11592;45.460;9.240;2023-04-25T13:55:42;22.70;99.90
22852;DHT22;11592;45.460;9.240;2023-04-25T13:58:09;24.40;98.50
22852;DHT22;11592;45.460;9.240;2023-04-25T14:00:38;26.40;96.10
22852;DHT22;11592;45.460;9.240;2023-04-25T14:03:06;27.70;92.90
22852;DHT22;11592;45.460;9.240;2023-04-25T14:05:35;29.10;88.90
22852;DHT22;11592;45.460;9.240;2023-04-25T14:08:09;29.50;87.00
22852;DHT22;11592;45.460;9.240;2023-04-25T14:10:36;30.60;84.20
22852;DHT22;11592;45.460;9.240;2023-04-25T14:13:04;31.00;78.00
22852;DHT22;11592;45.460;9.240;2023-04-25T14:15:31;31.30;72.50
22852;DHT22;11592;45.460;9.240;2023-04-25T14:17:59;31.10;70.20
22852;DHT22;11592;45.460;9.240;2023-04-25T14:20:27;31.30;69.50
22852;DHT22;11592;45.460;9.240;2023-04-25T14:22:54;31.50;70.20
22852;DHT22;11592;45.460;9.240;2023-04-25T14:25:23;31.90;66.80
22852;DHT22;11592;45.460;9.240;2023-04-25T14:27:50;31.80;67.10
22852;DHT22;11592;45.460;9.240;2023-04-25T14:30:18;31.60;64.70
22852;DHT22;11592;45.460;9.240;2023-04-25T14:32:46;31.70;65.30
22852;DHT22;11592;45.460;9.240;2023-04-25T14:35:13;31.50;63.70
22852;DHT22;11592;45.460;9.240;2023-04-25T14:37:40;31.30;60.60
22852;DHT22;11592;45.460;9.240;2023-04-25T14:40:07;30.00;59.80
22852;DHT22;11592;45.460;9.240;2023-04-25T14:42:37;29.40;61.80
22852;DHT22;11592;45.460;9.240;2023-04-25T14:45:05;29.40;61.80
22852;DHT22;11592;45.460;9.240;2023-04-25T14:47:35;29.70;62.60
22852;DHT22;11592;45.460;9.240;2023-04-25T14:50:03;30.20;64.90
22852;DHT22;11592;45.460;9.240;2023-04-25T14:52:31;30.10;63.30
22852;DHT22;11592;45.460;9.240;2023-04-25T14:54:58;29.30;64.10
22852;DHT22;11592;45.460;9.240;2023-04-25T14:57:27;29.10;64.90
22852;DHT22;11592;45.460;9.240;2023-04-25T14:59:53;28.70;63.50
22852;DHT22;11592;45.460;9.240;2023-04-25T15:02:20;28.30;64.10
22852;DHT22;11592;45.460;9.240;2023-04-25T15:04:48;28.60;63.10
22852;DHT22;11592;45.460;9.240;2023-04-25T15:07:14;29.00;62.50
22852;DHT22;11592;45.460;9.240;2023-04-25T15:09:44;29.40;65.30
22852;DHT22;11592;45.460;9.240;2023-04-25T15:12:10;29.80;66.10
22852;DHT22;11592;45.460;9.240;2023-04-25T15:14:38;29.80;64.70
22852;DHT22;11592;45.460;9.240;2023-04-25T15:17:05;29.70;63.80
22852;DHT22;11592;45.460;9.240;2023-04-25T15:19:32;29.90;64.80
22852;DHT22;11592;45.460;9.240;2023-04-25T15:21:58;30.40;64.00
22852;DHT22;11592;45.460;9.240;2023-04-25T15:24:29;30.10;61.60
22852;DHT22;11592;45.460;9.240;2023-04-25T15:26:56;29.80;60.70
22852;DHT22;11592;45.460;9.240;2023-04-25T15:29:23;29.40;61.90
22852;DHT22;11592;45.460;9.240;2023-04-25T15:31:50;29.00;66.70
22852;DHT22;11592;45.460;9.240;2023-04-25T15:34:17;29.10;61.70
22852;DHT22;11592;45.460;9.240;2023-04-25T15:36:45;28.90;60.80
22852;DHT22;11592;45.460;9.240;2023-04-25T15:39:11;28.50;65.90
22852;DHT22;11592;45.460;9.240;2023-04-25T15:41:38;28.40;67.60